| time (UTC) | temp F | wind direction | speed knots | gust knots | rain 1hr in | rain 24hr in | rain mn in | humidity % | barometer mb |
| 20260510130011 | 70 | 240 | 0.0 | 0.9 | 0.00 | 0.00 | 0.00 | 58 | 1013.6 |
| 20260510124508 | 67 | 353 | 0.0 | 1.7 | 0.00 | 0.00 | 0.00 | 62 | 1013.7 |
| 20260510123003 | 66 | 56 | 0.0 | 1.7 | 0.00 | 0.00 | 0.00 | 66 | 1013.6 |
| 20260510121601 | 65 | 257 | 0.0 | 0.9 | 0.00 | 0.00 | 0.00 | 68 | 1013.4 |
| 20260510120059 | 65 | 160 | 0.0 | 0.0 | 0.00 | 0.00 | 0.00 | 73 | 1013.4 |
| 20260510114555 | 63 | 161 | 0.0 | 0.0 | 0.00 | 0.00 | 0.00 | 78 | 1013.3 |
| 20260510113054 | 58 | 161 | 0.0 | 0.0 | 0.00 | 0.00 | 0.00 | 85 | 1013.0 |
| 20260510111552 | 56 | 160 | 0.0 | 0.0 | 0.00 | 0.00 | 0.00 | 89 | 1012.9 |
| 20260510110052 | 53 | 161 | 0.0 | 0.9 | 0.00 | 0.00 | 0.00 | 90 | 1012.7 |
| 20260510104556 | 53 | 160 | 0.0 | 0.9 | 0.00 | 0.00 | 0.00 | 91 | 1012.6 |
| 20260510103044 | 0 | 0.0 | 0.0 | 0.00 | 0.00 | 0.00 | 1012.2 | ||
| 20260510101547 | 0 | 0.0 | 0.0 | 0.00 | 0.00 | 0.00 | 1012.0 | ||
| 20260510100035 | 0 | 0.0 | 0.0 | 0.00 | 0.00 | 0.00 | 1011.8 | ||
| 20260510094532 | 0 | 0.0 | 0.0 | 0.00 | 0.00 | 0.00 | 1011.7 | ||
| 20260510093026 | 0 | 0.0 | 0.0 | 0.00 | 0.00 | 0.00 | 1011.6 | ||
| 20260510091526 | 0 | 0.0 | 0.0 | 0.00 | 0.00 | 0.00 | 1011.7 | ||
| 20260510090020 | 52 | 264 | 0.0 | 0.0 | 0.00 | 0.00 | 0.00 | 89 | 1011.5 |
| 20260510084539 | 54 | 264 | 0.0 | 0.9 | 0.00 | 0.00 | 0.00 | 89 | 1011.5 |
| 20260510083016 | 54 | 339 | 0.0 | 0.9 | 0.00 | 0.00 | 0.00 | 90 | 1011.4 |
| 20260510081528 | 54 | 340 | 0.0 | 0.9 | 0.00 | 0.00 | 0.00 | 90 | 1011.3 |
| 20260510080016 | 54 | 283 | 0.0 | 0.9 | 0.00 | 0.00 | 0.00 | 90 | 1011.1 |
| 20260510074510 | 54 | 283 | 0.0 | 0.0 | 0.00 | 0.00 | 0.00 | 89 | 1011.1 |
| 20260510073008 | 55 | 283 | 0.0 | 0.0 | 0.00 | 0.00 | 0.00 | 89 | 1010.9 |
| 20260510071506 | 55 | 283 | 0.0 | 0.0 | 0.00 | 0.00 | 0.00 | 88 | 1010.7 |
| 20260510070003 | 56 | 283 | 0.0 | 0.9 | 0.00 | 0.00 | 0.00 | 86 | 1010.7 |
| 20260510064604 | 57 | 284 | 0.0 | 0.9 | 0.00 | 0.00 | 0.00 | 85 | 1010.6 |
| 20260510063057 | 57 | 284 | 0.0 | 0.0 | 0.00 | 0.00 | 0.00 | 84 | 1010.6 |
| 20260510061603 | 58 | 284 | 0.0 | 0.9 | 0.00 | 0.00 | 0.00 | 82 | 1010.6 |
| 20260510060053 | 59 | 284 | 0.0 | 0.9 | 0.00 | 0.00 | 0.00 | 80 | 1010.4 |
| 20260510054549 | 60 | 284 | 0.0 | 0.9 | 0.00 | 0.00 | 0.00 | 79 | 1010.5 |
| 20260510053054 | 60 | 300 | 0.0 | 1.7 | 0.00 | 0.00 | 0.00 | 78 | 1010.5 |
| 20260510051545 | 61 | 280 | 0.0 | 0.9 | 0.00 | 0.00 | 0.00 | 77 | 1010.5 |
| 20260510050048 | 61 | 280 | 0.0 | 0.9 | 0.00 | 0.00 | 0.00 | 76 | 1010.5 |
| 20260510044546 | 61 | 285 | 0.0 | 0.9 | 0.00 | 0.00 | 0.00 | 76 | 1010.5 |
| 20260510043041 | 61 | 288 | 0.0 | 0.9 | 0.00 | 0.00 | 0.00 | 75 | 1010.4 |
| 20260510041539 | 62 | 274 | 0.0 | 0.9 | 0.00 | 0.00 | 0.00 | 74 | 1010.5 |
| 20260510040034 | 62 | 274 | 0.0 | 3.5 | 0.00 | 0.00 | 0.00 | 74 | 1010.5 |
| 20260510034534 | 63 | 245 | 0.0 | 0.9 | 0.00 | 0.00 | 0.00 | 72 | 1010.3 |
| 20260510033034 | 63 | 232 | 0.0 | 1.7 | 0.00 | 0.00 | 0.00 | 72 | 1010.2 |
| 20260510031538 | 63 | 228 | 0.0 | 0.9 | 0.00 | 0.00 | 0.00 | 71 | 1010.0 |
| 20260510030036 | 63 | 228 | 0.0 | 0.9 | 0.00 | 0.00 | 0.00 | 71 | 1010.0 |
| 20260510024535 | 62 | 229 | 0.0 | 0.0 | 0.00 | 0.00 | 0.00 | 71 | 1009.9 |
| 20260510023035 | 62 | 228 | 0.0 | 0.0 | 0.00 | 0.00 | 0.00 | 71 | 1009.7 |
| 20260510021535 | 62 | 229 | 0.0 | 0.0 | 0.00 | 0.00 | 0.00 | 72 | 1009.6 |
| 20260510020031 | 63 | 228 | 0.0 | 0.9 | 0.00 | 0.00 | 0.00 | 70 | 1009.6 |
| 20260510014530 | 63 | 232 | 0.0 | 0.0 | 0.00 | 0.00 | 0.00 | 70 | 1009.3 |
| 20260510013029 | 63 | 232 | 0.0 | 0.9 | 0.00 | 0.00 | 0.00 | 70 | 1009.1 |
| 20260510011530 | 65 | 232 | 0.0 | 0.0 | 0.00 | 0.00 | 0.00 | 66 | 1008.9 |
| 20260510010029 | 66 | 231 | 0.0 | 0.0 | 0.00 | 0.00 | 0.00 | 64 | 1008.8 |
| 20260510004527 | 67 | 232 | 0.0 | 0.9 | 0.00 | 0.00 | 0.00 | 62 | 1008.7 |
| 20260510003031 | 68 | 232 | 0.0 | 0.9 | 0.00 | 0.00 | 0.00 | 59 | 1008.5 |
| 20260510001526 | 69 | 167 | 0.0 | 1.7 | 0.00 | 0.00 | 0.00 | 58 | 1008.4 |
| 20260510000026 | 70 | 243 | 0.0 | 5.2 | 0.00 | 0.00 | 0.00 | 55 | 1008.3 |
| 20260509234534 | 72 | 271 | 0.9 | 3.5 | 0.00 | 0.00 | 0.00 | 53 | 1008.1 |
| 20260509233024 | 74 | 263 | 0.0 | 2.6 | 0.00 | 0.00 | 0.00 | 51 | 1008.0 |
| 20260509231523 | 75 | 239 | 0.0 | 2.6 | 0.00 | 0.00 | 0.00 | 49 | 1008.0 |
| 20260509230024 | 75 | 238 | 0.0 | 2.6 | 0.00 | 0.00 | 0.00 | 47 | 1008.2 |
| 20260509224522 | 75 | 252 | 0.0 | 2.6 | 0.00 | 0.00 | 0.00 | 48 | 1008.0 |
| 20260509223022 | 75 | 269 | 0.0 | 4.3 | 0.00 | 0.00 | 0.00 | 50 | 1008.1 |
| 20260509221522 | 75 | 293 | 1.7 | 5.2 | 0.00 | 0.00 | 0.00 | 49 | 1008.1 |
| 20260509220022 | 74 | 254 | 1.7 | 6.1 | 0.00 | 0.00 | 0.00 | 49 | 1008.1 |
| 20260509214523 | 74 | 186 | 2.6 | 7.0 | 0.00 | 0.00 | 0.00 | 49 | 1008.1 |
| 20260509213020 | 75 | 181 | 0.0 | 5.2 | 0.00 | 0.00 | 0.00 | 49 | 1008.1 |
| 20260509211519 | 76 | 281 | 0.9 | 4.3 | 0.00 | 0.00 | 0.00 | 46 | 1008.0 |
| 20260509210024 | 77 | 186 | 0.0 | 2.6 | 0.00 | 0.00 | 0.00 | 46 | 1007.9 |
| 20260509204517 | 78 | 226 | 2.6 | 9.6 | 0.00 | 0.00 | 0.00 | 45 | 1007.8 |
| 20260509203014 | 76 | 299 | 0.9 | 9.6 | 0.00 | 0.00 | 0.00 | 47 | 1007.8 |
| 20260509201514 | 76 | 328 | 1.7 | 7.8 | 0.00 | 0.00 | 0.00 | 48 | 1007.9 |
| 20260509200012 | 77 | 115 | 2.6 | 9.6 | 0.00 | 0.00 | 0.00 | 47 | 1008.1 |
| 20260509194510 | 76 | 269 | 2.6 | 7.0 | 0.00 | 0.00 | 0.00 | 50 | 1008.3 |
| 20260509193007 | 73 | 254 | 1.7 | 11.3 | 0.00 | 0.00 | 0.00 | 53 | 1008.6 |
| 20260509191506 | 73 | 314 | 1.7 | 4.3 | 0.00 | 0.00 | 0.00 | 55 | 1008.8 |
| 20260509190001 | 74 | 291 | 2.6 | 7.0 | 0.00 | 0.00 | 0.00 | 52 | 1009.0 |
| 20260509184657 | 74 | 179 | 2.6 | 5.2 | 0.00 | 0.00 | 0.00 | 53 | 1009.2 |
| 20260509183110 | 74 | 238 | 0.9 | 7.0 | 0.00 | 0.00 | 0.00 | 54 | 1009.5 |
| 20260509181557 | 74 | 319 | 1.7 | 7.0 | 0.00 | 0.00 | 0.00 | 54 | 1009.7 |
| 20260509180105 | 72 | 252 | 1.7 | 7.0 | 0.00 | 0.00 | 0.00 | 54 | 1009.8 |
| 20260509174552 | 72 | 311 | 1.7 | 6.1 | 0.00 | 0.00 | 0.00 | 56 | 1009.9 |
| 20260509173054 | 72 | 274 | 0.9 | 8.7 | 0.00 | 0.00 | 0.00 | 57 | 1010.1 |
| 20260509171548 | 72 | 274 | 2.6 | 9.6 | 0.00 | 0.00 | 0.00 | 56 | 1010.2 |
| 20260509170051 | 70 | 333 | 2.6 | 8.7 | 0.00 | 0.00 | 0.00 | 59 | 1010.4 |
| 20260509164545 | 69 | 239 | 1.7 | 7.8 | 0.00 | 0.00 | 0.00 | 59 | 1010.5 |
| 20260509163103 | 69 | 210 | 1.7 | 5.2 | 0.00 | 0.00 | 0.00 | 58 | 1010.4 |
| 20260509161544 | 69 | 303 | 3.5 | 10.4 | 0.00 | 0.00 | 0.00 | 57 | 1010.5 |
| 20260509160044 | 70 | 270 | 6.1 | 13.9 | 0.00 | 0.00 | 0.00 | 55 | 1010.4 |
| 20260509154545 | 70 | 281 | 4.3 | 11.3 | 0.00 | 0.00 | 0.00 | 56 | 1010.6 |
| 20260509153040 | 70 | 293 | 2.6 | 7.8 | 0.00 | 0.00 | 0.00 | 56 | 1011.0 |
| 20260509151535 | 68 | 312 | 1.7 | 8.7 | 0.00 | 0.00 | 0.00 | 57 | 1011.0 |
| 20260509150031 | 67 | 242 | 2.6 | 7.0 | 0.00 | 0.00 | 0.00 | 59 | 1010.9 |
| 20260509144527 | 66 | 255 | 5.2 | 10.4 | 0.00 | 0.00 | 0.00 | 60 | 1011.2 |
| 20260509143025 | 65 | 271 | 1.7 | 7.8 | 0.00 | 0.00 | 0.00 | 62 | 1011.6 |
| 20260509141533 | 64 | 283 | 1.7 | 9.6 | 0.00 | 0.00 | 0.00 | 63 | 1011.5 |
| 20260509140018 | 63 | 240 | 0.9 | 7.8 | 0.00 | 0.00 | 0.00 | 64 | 1011.8 |
| 20260509134515 | 62 | 269 | 0.9 | 7.0 | 0.00 | 0.00 | 0.00 | 66 | 1011.9 |
| 20260509133011 | 61 | 281 | 0.9 | 7.8 | 0.00 | 0.00 | 0.00 | 68 | 1011.9 |
| 20260509131510 | 60 | 248 | 0.9 | 6.1 | 0.00 | 0.00 | 0.00 | 69 | 1012.1 |